Time;durP1;ratioP1;P1;durP2;ratioP2;P2;SDS_P1;SDS_P2;PMS_P1;PMS_P2;Temp;Humidity;BMP_temperature;BMP_pressure;BME280_temperature;BME280_humidity;BME280_pressure;Samples;Min_cycle;Max_cycle;Signal;HPM_P1;HPM_P2
2021/11/12 00:02:08;;;;;;;;;;;9.00;90.60;;;;;;4349813;32;20039;-84
2021/11/12 00:12:30;;;;;;;;;;;9.00;90.40;;;;;;4349868;32;20013;-84
2021/11/12 00:14:59;;;;;;;;;;;9.00;90.40;;;;;;4337415;32;20398;-85
2021/11/12 00:17:29;;;;;;;;;;;9.00;90.30;;;;;;4349514;32;20001;-84
2021/11/12 00:19:57;;;;;;;;;;;9.00;90.30;;;;;;4337156;32;20015;-85
2021/11/12 00:22:33;;;;;;;;;;;8.90;90.30;;;;;;4337417;32;20000;-85
2021/11/12 00:25:05;;;;;;;;;;;8.90;90.30;;;;;;4337445;32;20012;-85
2021/11/12 00:27:36;;;;;;;;;;;8.90;90.40;;;;;;4337462;32;20008;-85
2021/11/12 00:38:16;;;;;;;;;;;8.80;90.50;;;;;;4342865;32;20005;-85
2021/11/12 00:41:33;;;;;;;;;;;8.80;90.50;;;;;;4337508;32;20005;-85
2021/11/12 00:43:44;;;;;;;;;;;8.70;90.60;;;;;;4343307;32;20020;-86
2021/11/12 00:46:21;;;;;;;;;;;8.70;90.70;;;;;;4337132;32;20001;-85
2021/11/12 00:48:53;;;;;;;;;;;8.60;90.80;;;;;;4336915;32;20402;-84
2021/11/12 00:53:54;;;;;;;;;;;8.50;91.10;;;;;;4348899;32;20032;-84
2021/11/12 00:56:25;;;;;;;;;;;8.40;91.10;;;;;;4337211;32;20012;-85
2021/11/12 00:58:57;;;;;;;;;;;8.40;91.20;;;;;;4335635;32;20004;-85
2021/11/12 01:01:26;;;;;;;;;;;8.40;91.20;;;;;;4336614;32;19997;-84
2021/11/12 01:03:57;;;;;;;;;;;8.40;91.20;;;;;;4336959;32;19997;-84
2021/11/12 01:06:24;;;;;;;;;;;8.40;91.30;;;;;;4336358;32;20004;-86
2021/11/12 01:08:52;;;;;;;;;;;8.30;91.30;;;;;;4336271;32;20017;-85
2021/11/12 01:11:27;;;;;;;;;;;8.30;91.30;;;;;;4336572;32;20072;-85
2021/11/12 01:13:55;;;;;;;;;;;8.30;91.40;;;;;;4336563;32;20001;-85
2021/11/12 01:16:23;;;;;;;;;;;8.30;91.40;;;;;;4336257;32;20005;-85
2021/11/12 01:18:50;;;;;;;;;;;8.20;91.40;;;;;;4336454;32;20001;-85
2021/11/12 01:21:19;;;;;;;;;;;8.20;91.40;;;;;;4336490;32;20047;-85
2021/11/12 01:23:51;;;;;;;;;;;8.30;91.40;;;;;;4336916;32;20106;-85
2021/11/12 01:26:26;;;;;;;;;;;8.20;91.30;;;;;;4336580;32;19993;-84
2021/11/12 01:28:58;;;;;;;;;;;8.30;91.30;;;;;;4336492;32;20011;-85
2021/11/12 01:31:28;;;;;;;;;;;8.30;91.30;;;;;;4336075;32;20043;-84
2021/11/12 01:33:57;;;;;;;;;;;8.30;91.20;;;;;;4335978;32;20473;-84
2021/11/12 01:36:31;;;;;;;;;;;8.30;91.10;;;;;;4336005;32;20020;-85
2021/11/12 01:39:05;;;;;;;;;;;8.30;91.10;;;;;;4336437;32;20074;-84
2021/11/12 01:41:34;;;;;;;;;;;8.40;90.90;;;;;;4335907;32;20398;-84
2021/11/12 01:44:05;;;;;;;;;;;8.40;90.90;;;;;;4336058;32;20031;-85
2021/11/12 01:46:53;;;;;;;;;;;8.40;90.90;;;;;;4335576;32;24061;-85
2021/11/12 01:49:32;;;;;;;;;;;8.40;90.90;;;;;;4348256;32;20013;-84
2021/11/12 01:52:12;;;;;;;;;;;8.40;90.80;;;;;;4335814;32;20064;-85
2021/11/12 01:59:56;;;;;;;;;;;8.30;90.80;;;;;;4348182;32;20015;-86
2021/11/12 02:02:25;;;;;;;;;;;8.20;90.90;;;;;;4335443;32;20406;-85
2021/11/12 02:04:53;;;;;;;;;;;8.20;91.00;;;;;;4335797;32;20379;-85
2021/11/12 02:07:24;;;;;;;;;;;8.10;91.10;;;;;;4335855;32;20074;-86
2021/11/12 02:09:51;;;;;;;;;;;8.10;91.20;;;;;;4335315;32;20056;-87
2021/11/12 02:12:29;;;;;;;;;;;8.00;91.20;;;;;;4335907;32;20125;-87
2021/11/12 02:14:58;;;;;;;;;;;8.00;91.30;;;;;;4335755;32;20435;-85
2021/11/12 02:17:33;;;;;;;;;;;8.00;91.30;;;;;;4335606;32;20110;-86
2021/11/12 02:20:19;;;;;;;;;;;7.90;91.30;;;;;;4336061;32;20001;-87
2021/11/12 02:22:56;;;;;;;;;;;7.90;91.40;;;;;;4348395;32;20008;-86
2021/11/12 02:25:43;;;;;;;;;;;7.90;91.40;;;;;;4335674;32;20415;-87
2021/11/12 02:28:16;;;;;;;;;;;7.90;91.40;;;;;;4335926;32;20083;-89
2021/11/12 02:30:52;;;;;;;;;;;7.90;91.40;;;;;;4336014;32;20024;-87
2021/11/12 02:33:25;;;;;;;;;;;7.90;91.40;;;;;;4335930;33;20001;-86
2021/11/12 02:36:09;;;;;;;;;;;7.90;91.40;;;;;;4335894;33;20398;-87
2021/11/12 02:38:39;;;;;;;;;;;7.90;91.40;;;;;;4348723;33;20448;-92
2021/11/12 02:41:10;;;;;;;;;;;7.90;91.40;;;;;;4336307;33;20005;-86
2021/11/12 02:43:38;;;;;;;;;;;7.90;91.30;;;;;;4335862;33;20079;-86
2021/11/12 02:46:09;;;;;;;;;;;7.80;91.30;;;;;;4335662;33;20051;-88
2021/11/12 02:48:40;;;;;;;;;;;7.80;91.40;;;;;;4347766;33;20047;-86
2021/11/12 02:51:13;;;;;;;;;;;7.80;91.40;;;;;;4335796;33;20001;-87
2021/11/12 02:53:44;;;;;;;;;;;7.80;91.40;;;;;;4336022;33;20004;-87
2021/11/12 02:56:30;;;;;;;;;;;7.80;91.40;;;;;;4335932;33;20068;-87
2021/11/12 02:59:16;;;;;;;;;;;7.80;91.40;;;;;;4335478;33;20009;-87
2021/11/12 03:01:45;;;;;;;;;;;7.80;91.50;;;;;;4334804;33;27980;-87
2021/11/12 03:04:14;;;;;;;;;;;7.70;91.50;;;;;;4335268;33;20053;-86
2021/11/12 03:06:43;;;;;;;;;;;7.70;91.60;;;;;;4335293;33;20015;-88
2021/11/12 03:09:11;;;;;;;;;;;7.70;91.60;;;;;;4335328;33;20023;-85
2021/11/12 03:11:39;;;;;;;;;;;7.60;91.60;;;;;;4335164;33;19997;-87
2021/11/12 03:14:10;;;;;;;;;;;7.60;91.70;;;;;;4335611;33;20000;-87
2021/11/12 03:16:38;;;;;;;;;;;7.60;91.80;;;;;;4335480;33;20064;-86
2021/11/12 03:19:08;;;;;;;;;;;7.50;91.80;;;;;;4335070;33;20031;-88
2021/11/12 03:21:37;;;;;;;;;;;7.50;91.80;;;;;;4347270;33;19996;-87
2021/11/12 03:24:12;;;;;;;;;;;7.50;91.80;;;;;;4337695;32;20361;-91
2021/11/12 03:26:45;;;;;;;;;;;7.50;91.80;;;;;;4337780;32;20005;-87
2021/11/12 04:21:44;;;;;;;;;;;7.30;91.80;;;;;;4348717;32;20073;-86
2021/11/12 05:03:13;;;;;;;;;;;7.10;91.70;;;;;;4348849;32;20060;-89
2021/11/12 05:44:25;;;;;;;;;;;6.80;91.80;;;;;;4347914;32;20024;-87
2021/11/12 05:57:33;;;;;;;;;;;7.00;91.30;;;;;;4348454;32;20064;-88
2021/11/12 06:00:01;;;;;;;;;;;7.00;91.30;;;;;;4335698;32;20450;-88
2021/11/12 06:02:28;;;;;;;;;;;7.00;91.30;;;;;;4335368;32;20406;-87
2021/11/12 06:04:59;;;;;;;;;;;7.00;91.40;;;;;;4336621;32;20076;-89
2021/11/12 06:07:29;;;;;;;;;;;6.90;91.40;;;;;;4335962;32;20370;-88
2021/11/12 06:09:56;;;;;;;;;;;6.90;91.40;;;;;;4335745;32;20023;-86
2021/11/12 06:12:26;;;;;;;;;;;6.90;91.40;;;;;;4348072;32;20027;-87
2021/11/12 06:15:03;;;;;;;;;;;6.90;91.40;;;;;;4336248;32;20052;-87
2021/11/12 06:17:36;;;;;;;;;;;6.90;91.30;;;;;;4336034;32;20047;-87
2021/11/12 06:20:05;;;;;;;;;;;7.00;91.30;;;;;;4336547;32;20039;-88
2021/11/12 06:22:32;;;;;;;;;;;6.90;91.30;;;;;;4335657;32;20072;-87
2021/11/12 06:25:09;;;;;;;;;;;7.00;91.30;;;;;;4335521;32;20005;-87
2021/11/12 06:27:40;;;;;;;;;;;6.90;91.30;;;;;;4335387;32;20063;-87
2021/11/12 06:30:13;;;;;;;;;;;6.90;91.30;;;;;;4335827;32;20034;-87
2021/11/12 06:32:41;;;;;;;;;;;6.90;91.30;;;;;;4335308;32;20007;-88
2021/11/12 06:35:09;;;;;;;;;;;6.90;91.40;;;;;;4348450;33;20408;-87
2021/11/12 06:37:37;;;;;;;;;;;6.90;91.40;;;;;;4336152;33;20446;-87
2021/11/12 06:40:05;;;;;;;;;;;6.90;91.40;;;;;;4335853;33;20052;-87
2021/11/12 06:42:38;;;;;;;;;;;6.90;91.30;;;;;;4347735;33;20091;-87
2021/11/12 06:50:40;;;;;;;;;;;6.90;91.20;;;;;;4347385;33;21490;-87
2021/11/12 06:53:08;;;;;;;;;;;6.90;91.20;;;;;;4335246;33;20039;-87
2021/11/12 06:55:35;;;;;;;;;;;6.90;91.10;;;;;;4335684;32;20005;-87
2021/11/12 06:58:02;;;;;;;;;;;6.90;91.10;;;;;;4338446;32;20429;-87
2021/11/12 07:00:30;;;;;;;;;;;6.90;91.10;;;;;;4338635;32;20365;-87
2021/11/12 07:02:57;;;;;;;;;;;6.90;91.10;;;;;;4338145;32;20057;-87
2021/11/12 07:05:24;;;;;;;;;;;6.90;91.10;;;;;;4350605;32;20845;-87
2021/11/12 07:07:53;;;;;;;;;;;6.90;91.10;;;;;;4338631;32;20011;-87
2021/11/12 07:10:20;;;;;;;;;;;6.90;91.10;;;;;;4338284;32;20013;-86
2021/11/12 07:12:48;;;;;;;;;;;6.90;91.10;;;;;;4338106;32;20020;-87
2021/11/12 07:15:18;;;;;;;;;;;6.90;91.10;;;;;;4338051;32;19997;-87
2021/11/12 07:17:48;;;;;;;;;;;6.90;91.10;;;;;;4337461;32;20031;-86
2021/11/12 07:20:17;;;;;;;;;;;6.90;91.10;;;;;;4337402;32;20386;-86
2021/11/12 07:22:45;;;;;;;;;;;6.90;91.10;;;;;;4350238;32;20007;-87
2021/11/12 07:25:12;;;;;;;;;;;7.00;91.10;;;;;;4337544;32;20068;-87
2021/11/12 07:27:40;;;;;;;;;;;6.90;91.10;;;;;;4337422;32;20039;-87
2021/11/12 07:30:16;;;;;;;;;;;6.90;91.10;;;;;;4350102;32;24411;-86
2021/11/12 07:32:44;;;;;;;;;;;6.90;91.20;;;;;;4349745;32;20095;-86
2021/11/12 07:35:13;;;;;;;;;;;6.90;91.20;;;;;;4338022;32;19996;-86
2021/11/12 07:37:44;;;;;;;;;;;6.90;91.20;;;;;;4338083;32;20001;-87
2021/11/12 07:40:20;;;;;;;;;;;6.80;91.20;;;;;;4337540;32;20007;-87
2021/11/12 07:43:15;;;;;;;;;;;6.80;91.30;;;;;;4350370;32;20027;-88
2021/11/12 07:45:47;;;;;;;;;;;6.80;91.40;;;;;;4350315;32;20001;-87
2021/11/12 07:48:14;;;;;;;;;;;6.70;91.40;;;;;;4338207;32;20064;-87
2021/11/12 07:50:42;;;;;;;;;;;6.70;91.40;;;;;;4337542;32;20009;-87
2021/11/12 07:53:09;;;;;;;;;;;6.70;91.40;;;;;;4337132;32;19993;-88
2021/11/12 07:55:36;;;;;;;;;;;6.70;91.40;;;;;;4337545;32;20398;-87
2021/11/12 07:58:05;;;;;;;;;;;6.70;91.40;;;;;;4337134;32;20001;-88
2021/11/12 08:00:33;;;;;;;;;;;6.70;91.50;;;;;;4337707;32;20043;-87
2021/11/12 08:03:03;;;;;;;;;;;6.70;91.60;;;;;;4337507;32;20080;-87
2021/11/12 08:06:01;;;;;;;;;;;6.60;91.60;;;;;;4337459;32;20464;-86
2021/11/12 08:08:36;;;;;;;;;;;6.60;91.70;;;;;;4337295;32;20323;-86
2021/11/12 08:17:04;;;;;;;;;;;6.50;92.00;;;;;;4349472;32;20413;-88
2021/11/12 08:22:18;;;;;;;;;;;6.40;92.10;;;;;;4349337;32;21445;-89
2021/11/12 08:25:15;;;;;;;;;;;6.40;92.10;;;;;;4338174;32;20017;-90
2021/11/12 08:28:13;;;;;;;;;;;6.40;92.20;;;;;;4337434;32;20045;-87
2021/11/12 08:33:41;;;;;;;;;;;6.40;92.30;;;;;;4349337;32;20010;-86
2021/11/12 08:41:44;;;;;;;;;;;6.50;92.30;;;;;;4349573;32;20020;-88
2021/11/12 08:47:16;;;;;;;;;;;6.50;92.40;;;;;;4349027;32;20012;-86
2021/11/12 08:49:50;;;;;;;;;;;6.50;92.50;;;;;;4337531;32;20103;-91
2021/11/12 08:52:25;;;;;;;;;;;6.50;92.40;;;;;;4337210;32;20039;-87
2021/11/12 08:55:30;;;;;;;;;;;6.50;92.40;;;;;;4346553;32;20020;-87
2021/11/12 08:58:01;;;;;;;;;;;6.50;92.50;;;;;;4337260;32;20015;-87
2021/11/12 09:00:36;;;;;;;;;;;6.50;92.50;;;;;;4336945;32;20015;-88
2021/11/12 09:03:15;;;;;;;;;;;6.50;92.50;;;;;;4337124;32;20414;-88
2021/11/12 09:05:50;;;;;;;;;;;6.50;92.50;;;;;;4350017;32;20075;-88
2021/11/12 09:08:17;;;;;;;;;;;6.60;92.60;;;;;;4336953;32;20473;-86
2021/11/12 09:10:45;;;;;;;;;;;6.60;92.60;;;;;;4336707;32;20034;-88
2021/11/12 09:13:25;;;;;;;;;;;6.60;92.60;;;;;;4348924;32;20450;-88
2021/11/12 09:15:56;;;;;;;;;;;6.60;92.60;;;;;;4336590;32;20000;-88
2021/11/12 09:18:28;;;;;;;;;;;6.60;92.60;;;;;;4336832;32;20070;-87
2021/11/12 09:21:02;;;;;;;;;;;6.60;92.60;;;;;;4336257;32;20060;-87
2021/11/12 09:23:29;;;;;;;;;;;6.60;92.60;;;;;;4336841;32;20036;-88
2021/11/12 09:26:04;;;;;;;;;;;6.70;92.60;;;;;;4336512;32;20410;-89
2021/11/12 09:28:41;;;;;;;;;;;6.70;92.60;;;;;;4337689;32;20421;-86
2021/11/12 09:31:12;;;;;;;;;;;6.70;92.60;;;;;;4348984;32;20020;-89
2021/11/12 09:33:42;;;;;;;;;;;6.70;92.60;;;;;;4336801;32;20060;-87
2021/11/12 09:36:16;;;;;;;;;;;6.80;92.60;;;;;;4348745;32;20052;-92
2021/11/12 09:38:49;;;;;;;;;;;6.80;92.70;;;;;;4348281;32;20106;-87
2021/11/12 09:41:23;;;;;;;;;;;6.80;92.60;;;;;;4335452;32;30407;-85
2021/11/12 09:43:56;;;;;;;;;;;6.80;92.60;;;;;;4347748;32;32178;-83
2021/11/12 09:46:24;;;;;;;;;;;6.80;92.60;;;;;;4335681;32;20056;-87
2021/11/12 09:48:59;;;;;;;;;;;6.90;92.60;;;;;;4335421;32;32269;-85
2021/11/12 09:51:30;;;;;;;;;;;6.90;92.60;;;;;;4348068;32;20013;-87
2021/11/12 09:54:04;;;;;;;;;;;6.90;92.60;;;;;;4336077;32;20021;-85
2021/11/12 09:56:37;;;;;;;;;;;7.00;92.70;;;;;;4348268;32;20023;-85
2021/11/12 09:59:08;;;;;;;;;;;7.00;92.70;;;;;;4348115;32;20015;-87
2021/11/12 10:01:39;;;;;;;;;;;7.10;92.70;;;;;;4335681;32;20040;-90
2021/11/12 10:04:13;;;;;;;;;;;7.10;93.10;;;;;;4348827;32;20432;-87
2021/11/12 10:06:46;;;;;;;;;;;7.20;92.80;;;;;;4335791;32;20035;-85
2021/11/12 10:09:20;;;;;;;;;;;7.30;92.80;;;;;;4335325;32;23431;-86
2021/11/12 10:11:56;;;;;;;;;;;7.30;92.80;;;;;;4336398;32;20013;-83
2021/11/12 10:14:44;;;;;;;;;;;7.40;92.60;;;;;;4348383;32;20488;-87
2021/11/12 10:17:15;;;;;;;;;;;7.50;92.60;;;;;;4335754;32;20011;-82
2021/11/12 10:19:51;;;;;;;;;;;7.60;92.60;;;;;;4334939;32;31415;-84
2021/11/12 10:22:24;;;;;;;;;;;7.70;92.70;;;;;;4335919;32;20011;-83
2021/11/12 10:24:54;;;;;;;;;;;7.70;92.60;;;;;;4335985;32;19996;-83
2021/11/12 10:27:32;;;;;;;;;;;7.80;92.50;;;;;;4349139;32;20043;-85
2021/11/12 10:30:03;;;;;;;;;;;7.90;92.50;;;;;;4347480;32;20001;-84
2021/11/12 10:32:34;;;;;;;;;;;7.90;92.40;;;;;;4348093;32;20008;-85
2021/11/12 10:35:09;;;;;;;;;;;8.00;92.40;;;;;;4335831;32;20012;-85
2021/11/12 10:37:41;;;;;;;;;;;8.10;92.40;;;;;;4335711;33;20009;-83
2021/11/12 10:40:22;;;;;;;;;;;8.10;92.40;;;;;;4335914;33;20001;-82
2021/11/12 10:42:58;;;;;;;;;;;8.20;92.30;;;;;;4348542;33;20418;-82
2021/11/12 10:45:32;;;;;;;;;;;8.20;92.30;;;;;;4334973;33;22654;-82
2021/11/12 10:48:02;;;;;;;;;;;8.30;92.40;;;;;;4361587;33;20061;-82
2021/11/12 10:50:38;;;;;;;;;;;8.30;92.30;;;;;;4335999;33;20001;-83
2021/11/12 10:53:10;;;;;;;;;;;8.40;92.30;;;;;;4336020;33;20343;-83
2021/11/12 10:55:45;;;;;;;;;;;8.50;92.30;;;;;;4335616;33;20300;-80
2021/11/12 10:58:26;;;;;;;;;;;8.50;92.30;;;;;;4336225;33;20001;-81
2021/11/12 11:00:54;;;;;;;;;;;8.60;92.30;;;;;;4335583;33;20061;-81
2021/11/12 11:03:26;;;;;;;;;;;8.70;92.30;;;;;;4335033;33;20426;-80
2021/11/12 11:05:59;;;;;;;;;;;8.70;92.30;;;;;;4335264;33;20035;-81
2021/11/12 11:08:32;;;;;;;;;;;8.80;92.30;;;;;;4335178;33;20005;-81
2021/11/12 11:11:05;;;;;;;;;;;8.80;92.30;;;;;;4335554;33;20011;-83
2021/11/12 11:13:48;;;;;;;;;;;8.90;92.30;;;;;;4335689;33;20359;-82
2021/11/12 11:16:28;;;;;;;;;;;8.90;92.30;;;;;;4335207;33;20039;-83
2021/11/12 11:18:59;;;;;;;;;;;9.00;92.30;;;;;;4347385;33;20008;-82
2021/11/12 11:21:30;;;;;;;;;;;9.10;92.40;;;;;;4335101;33;19993;-81
2021/11/12 11:24:07;;;;;;;;;;;9.20;92.40;;;;;;4335380;33;20009;-80
2021/11/12 11:26:47;;;;;;;;;;;9.20;92.40;;;;;;4335153;33;20049;-82
2021/11/12 11:29:21;;;;;;;;;;;9.20;92.30;;;;;;4335236;33;20075;-81
2021/11/12 11:31:55;;;;;;;;;;;9.30;92.30;;;;;;4335295;33;20028;-82
2021/11/12 11:34:30;;;;;;;;;;;9.40;92.30;;;;;;4335428;33;19997;-83
2021/11/12 11:37:03;;;;;;;;;;;9.50;92.30;;;;;;4346199;33;20009;-81
2021/11/12 11:39:31;;;;;;;;;;;9.50;92.30;;;;;;4335227;33;20009;-84
2021/11/12 11:42:04;;;;;;;;;;;9.60;92.30;;;;;;4335443;32;20049;-85
2021/11/12 11:44:44;;;;;;;;;;;9.60;92.30;;;;;;4349680;32;19997;-81
2021/11/12 11:47:24;;;;;;;;;;;9.70;92.40;;;;;;4337974;32;20015;-82
2021/11/12 11:49:51;;;;;;;;;;;9.70;92.30;;;;;;4337888;32;20394;-80
2021/11/12 11:52:30;;;;;;;;;;;9.80;92.30;;;;;;4337397;32;21025;-81
2021/11/12 11:54:58;;;;;;;;;;;9.80;92.30;;;;;;4350238;32;20031;-81
2021/11/12 11:57:31;;;;;;;;;;;9.90;92.20;;;;;;4337920;32;20043;-82
2021/11/12 12:31:21;;;;;;;;;;;10.40;92.20;;;;;;4349124;32;20369;-80
2021/11/12 12:37:24;;;;;;;;;;;10.50;92.20;;;;;;4349622;32;20103;-79
2021/11/12 13:20:48;;;;;;;;;;;11.10;91.80;;;;;;4348689;32;20032;-79
2021/11/12 13:25:56;;;;;;;;;;;11.20;91.90;;;;;;4348445;32;20005;-80
2021/11/12 13:28:29;;;;;;;;;;;11.20;91.80;;;;;;4336455;32;20000;-80
2021/11/12 13:31:12;;;;;;;;;;;11.30;91.90;;;;;;4336692;32;20001;-82
2021/11/12 13:33:46;;;;;;;;;;;11.30;91.80;;;;;;4336075;32;20047;-80
2021/11/12 13:36:25;;;;;;;;;;;11.40;91.90;;;;;;4335944;32;20437;-79
2021/11/12 13:39:05;;;;;;;;;;;11.40;91.80;;;;;;4335976;32;20441;-79
2021/11/12 13:41:37;;;;;;;;;;;11.40;91.80;;;;;;4336034;32;20001;-80
2021/11/12 13:44:18;;;;;;;;;;;11.40;91.90;;;;;;4360783;32;20018;-82
2021/11/12 13:46:54;;;;;;;;;;;11.50;91.90;;;;;;4335421;32;20134;-80
2021/11/12 13:49:25;;;;;;;;;;;11.50;91.80;;;;;;4336351;32;20048;-80
2021/11/12 13:51:58;;;;;;;;;;;11.50;91.70;;;;;;4348380;32;19993;-80
2021/11/12 13:54:34;;;;;;;;;;;11.50;91.70;;;;;;4348764;32;20070;-80
2021/11/12 13:57:08;;;;;;;;;;;11.50;91.70;;;;;;4335809;32;20362;-80
2021/11/12 13:59:39;;;;;;;;;;;11.50;91.70;;;;;;4335986;32;20366;-80
2021/11/12 14:02:09;;;;;;;;;;;11.50;91.60;;;;;;4336416;32;20005;-81
2021/11/12 14:04:42;;;;;;;;;;;11.60;91.60;;;;;;4335922;32;20000;-80
2021/11/12 14:07:14;;;;;;;;;;;11.60;91.50;;;;;;4335303;32;19997;-81
2021/11/12 14:10:00;;;;;;;;;;;11.60;91.70;;;;;;4335593;32;20019;-80
2021/11/12 14:16:23;;;;;;;;;;;11.70;91.60;;;;;;4361016;32;20012;-80
2021/11/12 14:35:38;;;;;;;;;;;11.80;91.60;;;;;;4348051;32;20063;-81
2021/11/12 14:38:13;;;;;;;;;;;11.80;91.60;;;;;;4335672;33;20454;-80
2021/11/12 14:45:47;;;;;;;;;;;11.80;91.50;;;;;;4375527;32;20022;-81
2021/11/12 14:48:38;;;;;;;;;;;11.80;91.60;;;;;;4375104;32;20004;-81
2021/11/12 14:53:38;;;;;;;;;;;11.80;91.40;;;;;;4362231;32;20044;-82
2021/11/12 14:58:35;;;;;;;;;;;11.70;91.40;;;;;;4376337;32;20060;-82
2021/11/12 15:01:08;;;;;;;;;;;11.70;91.30;;;;;;4362127;32;20011;-81
2021/11/12 15:03:36;;;;;;;;;;;11.70;91.50;;;;;;4375189;32;20000;-80
2021/11/12 15:06:10;;;;;;;;;;;11.70;91.50;;;;;;4376295;32;20009;-81
2021/11/12 15:08:45;;;;;;;;;;;11.80;91.50;;;;;;4375937;32;20092;-80
2021/11/12 15:11:13;;;;;;;;;;;11.80;91.50;;;;;;4349867;32;20319;-81
2021/11/12 15:13:41;;;;;;;;;;;11.80;91.60;;;;;;4361052;32;40402;-81
2021/11/12 15:16:21;;;;;;;;;;;11.80;91.40;;;;;;4361883;32;30842;-80
2021/11/12 15:18:52;;;;;;;;;;;11.80;91.20;;;;;;4376190;32;20360;-80
2021/11/12 15:21:32;;;;;;;;;;;11.80;91.30;;;;;;4379036;32;20005;-80
2021/11/12 15:24:21;;;;;;;;;;;11.80;91.30;;;;;;4378845;32;20008;-80
2021/11/12 15:29:54;;;;;;;;;;;11.80;91.00;;;;;;4361645;32;20064;-87
2021/11/12 15:32:33;;;;;;;;;;;11.80;90.80;;;;;;4377521;32;20071;-86
2021/11/12 15:35:06;;;;;;;;;;;11.80;90.70;;;;;;4365276;32;20013;-88
2021/11/12 15:48:08;;;;;;;;;;;11.70;90.20;;;;;;4378351;32;20014;-86
2021/11/12 15:53:44;;;;;;;;;;;11.70;90.40;;;;;;4364133;32;31349;-84
2021/11/12 15:59:01;;;;;;;;;;;11.60;90.20;;;;;;4378755;32;20047;-83
2021/11/12 16:09:53;;;;;;;;;;;11.60;90.10;;;;;;4360319;32;34402;-83
2021/11/12 16:15:33;;;;;;;;;;;11.60;89.60;;;;;;4327669;32;38534;-85
2021/11/12 16:26:09;;;;;;;;;;;11.50;89.50;;;;;;4376795;32;44773;-83
2021/11/12 16:29:12;;;;;;;;;;;11.50;88.90;;;;;;4350532;32;44658;-85
2021/11/12 16:31:32;;;;;;;;;;;11.50;88.80;;;;;;4363055;32;30839;-84
2021/11/12 16:34:09;;;;;;;;;;;11.40;88.60;;;;;;4364077;32;25865;-84
2021/11/12 16:36:42;;;;;;;;;;;11.40;88.20;;;;;;4364138;32;20010;-82
2021/11/12 16:39:10;;;;;;;;;;;11.40;89.20;;;;;;4376832;32;20013;-85
2021/11/12 16:41:46;;;;;;;;;;;11.40;88.80;;;;;;4364087;32;20388;-82
2021/11/12 16:44:30;;;;;;;;;;;11.40;88.70;;;;;;4377738;32;20022;-85
2021/11/12 16:49:41;;;;;;;;;;;11.30;88.20;;;;;;4363548;32;20022;-82
2021/11/12 16:52:26;;;;;;;;;;;11.30;88.30;;;;;;4351684;32;20023;-84
2021/11/12 16:55:12;;;;;;;;;;;11.30;88.20;;;;;;4376592;32;20005;-84
2021/11/12 17:05:49;;;;;;;;;;;11.20;87.50;;;;;;4377218;32;20008;-85
2021/11/12 17:08:39;;;;;;;;;;;11.10;87.20;;;;;;4377098;32;21636;-83
2021/11/12 17:46:51;;;;;;;;;;;10.90;86.50;;;;;;4376512;32;20402;-83
2021/11/12 18:05:53;;;;;;;;;;;11.20;86.20;;;;;;4367612;32;19996;-84
2021/11/12 21:44:28;;;;;;;;;;;9.30;93.30;;;;;;4376950;32;20004;-85
2021/11/12 21:46:55;;;;;;;;;;;9.30;93.40;;;;;;4363083;32;20019;-89
2021/11/12 21:49:23;;;;;;;;;;;9.30;93.50;;;;;;4375714;32;35087;-85
2021/11/12 21:51:50;;;;;;;;;;;9.20;93.60;;;;;;4361911;32;43747;-84
2021/11/12 21:54:17;;;;;;;;;;;9.30;93.70;;;;;;4375875;32;31518;-86
2021/11/12 21:56:44;;;;;;;;;;;9.30;93.70;;;;;;4375677;32;33108;-83
2021/11/12 21:59:14;;;;;;;;;;;9.30;93.70;;;;;;4375887;32;34643;-86
2021/11/12 22:01:42;;;;;;;;;;;9.30;93.60;;;;;;4374914;32;44223;-84
2021/11/12 22:04:09;;;;;;;;;;;9.30;93.80;;;;;;4377378;32;32143;-85
2021/11/12 22:06:38;;;;;;;;;;;9.30;93.70;;;;;;4376494;32;43775;-85
2021/11/12 22:09:06;;;;;;;;;;;9.30;93.80;;;;;;4376837;32;43193;-87
2021/11/12 22:11:33;;;;;;;;;;;9.30;93.70;;;;;;4390403;32;39542;-84
2021/11/12 22:14:02;;;;;;;;;;;9.30;94.00;;;;;;4377885;32;20012;-84
2021/11/12 22:16:30;;;;;;;;;;;9.20;94.00;;;;;;4390768;32;20016;-87
2021/11/12 22:19:00;;;;;;;;;;;9.20;93.90;;;;;;4378038;32;20049;-85
2021/11/12 22:21:27;;;;;;;;;;;9.30;94.20;;;;;;4377616;32;20348;-86
2021/11/12 22:23:54;;;;;;;;;;;9.20;94.20;;;;;;4378108;32;20081;-83
2021/11/12 22:26:22;;;;;;;;;;;9.20;94.20;;;;;;4378027;32;20409;-85
2021/11/12 22:28:51;;;;;;;;;;;9.20;94.20;;;;;;4391512;32;20008;-84
2021/11/12 22:31:18;;;;;;;;;;;9.20;94.30;;;;;;4391293;32;20436;-90
2021/11/12 22:33:45;;;;;;;;;;;9.20;94.30;;;;;;4389523;32;20008;-91
2021/11/12 22:36:15;;;;;;;;;;;9.20;94.30;;;;;;4391500;32;20054;-88
2021/11/12 22:38:44;;;;;;;;;;;9.20;94.50;;;;;;4377749;32;20016;-87
2021/11/12 22:41:11;;;;;;;;;;;9.20;94.40;;;;;;4378181;32;20016;-88
2021/11/12 22:43:39;;;;;;;;;;;9.20;94.40;;;;;;4391740;32;20004;-86
2021/11/12 22:46:11;;;;;;;;;;;9.20;94.50;;;;;;4391225;32;20019;-85
2021/11/12 22:48:41;;;;;;;;;;;9.20;94.30;;;;;;4365663;32;20385;-90
2021/11/12 22:51:08;;;;;;;;;;;9.20;94.40;;;;;;4390144;32;20058;-84
2021/11/12 22:53:37;;;;;;;;;;;9.20;94.30;;;;;;4377485;32;20372;-85
2021/11/12 22:56:04;;;;;;;;;;;9.20;94.30;;;;;;4390971;32;20098;-85
2021/11/12 22:58:34;;;;;;;;;;;9.20;94.30;;;;;;4391202;32;20012;-86
2021/11/12 23:01:04;;;;;;;;;;;9.20;94.40;;;;;;4391295;32;20016;-87
2021/11/12 23:03:31;;;;;;;;;;;9.30;94.40;;;;;;4389089;32;20011;-86
2021/11/12 23:06:01;;;;;;;;;;;9.20;94.50;;;;;;4406172;32;20012;-86
2021/11/12 23:08:28;;;;;;;;;;;9.20;94.50;;;;;;4391993;32;20018;-89
2021/11/12 23:10:55;;;;;;;;;;;9.20;94.50;;;;;;4406448;32;20008;-85
2021/11/12 23:13:26;;;;;;;;;;;9.20;94.50;;;;;;4406159;32;20991;-85
2021/11/12 23:15:56;;;;;;;;;;;9.30;94.40;;;;;;4406289;32;20018;-87
2021/11/12 23:18:23;;;;;;;;;;;9.30;94.40;;;;;;4406126;32;20024;-88
2021/11/12 23:20:51;;;;;;;;;;;9.30;94.60;;;;;;4406161;32;19992;-86
2021/11/12 23:23:19;;;;;;;;;;;9.30;94.50;;;;;;4405873;32;20007;-89
2021/11/12 23:25:46;;;;;;;;;;;9.30;94.60;;;;;;4406186;32;20061;-90
2021/11/12 23:28:14;;;;;;;;;;;9.30;94.60;;;;;;4392790;32;20102;-85
2021/11/12 23:30:44;;;;;;;;;;;9.30;94.60;;;;;;4391709;32;20000;-86
2021/11/12 23:33:13;;;;;;;;;;;9.30;94.60;;;;;;4405678;32;20049;-87
2021/11/12 23:35:41;;;;;;;;;;;9.30;94.50;;;;;;4392213;32;20030;-88
2021/11/12 23:38:10;;;;;;;;;;;9.40;94.50;;;;;;4405321;32;20019;-88
2021/11/12 23:40:37;;;;;;;;;;;9.40;94.60;;;;;;4394258;32;20217;-85
2021/11/12 23:43:04;;;;;;;;;;;9.40;94.70;;;;;;4407447;32;20461;-85
2021/11/12 23:45:32;;;;;;;;;;;9.40;94.70;;;;;;4395257;32;20416;-86
2021/11/12 23:47:59;;;;;;;;;;;9.40;94.90;;;;;;4409074;32;20004;-87
2021/11/12 23:50:27;;;;;;;;;;;9.40;94.90;;;;;;4407737;32;20424;-84
2021/11/12 23:52:54;;;;;;;;;;;9.40;94.90;;;;;;4408507;32;20073;-87
2021/11/12 23:55:22;;;;;;;;;;;9.30;94.90;;;;;;4394701;32;20045;-86
2021/11/12 23:57:50;;;;;;;;;;;9.40;95.00;;;;;;4394953;32;20016;-87
